sensor_id;sensor_type;location;lat;lon;timestamp;temperature;humidity
75091;DHT22;63674;48.048;8.306;2023-04-24T00:00:41;8.80;99.90
75091;DHT22;63674;48.048;8.306;2023-04-24T00:03:12;8.80;99.90
75091;DHT22;63674;48.048;8.306;2023-04-24T00:05:42;8.80;99.90
75091;DHT22;63674;48.048;8.306;2023-04-24T00:08:11;8.80;99.90
75091;DHT22;63674;48.048;8.306;2023-04-24T00:10:39;8.70;99.90
75091;DHT22;63674;48.048;8.306;2023-04-24T00:13:08;8.70;99.90
75091;DHT22;63674;48.048;8.306;2023-04-24T00:15:36;8.70;99.90
75091;DHT22;63674;48.048;8.306;2023-04-24T00:18:05;8.80;99.90
75091;DHT22;63674;48.048;8.306;2023-04-24T00:20:34;8.70;99.90
75091;DHT22;63674;48.048;8.306;2023-04-24T00:23:04;8.70;99.90
75091;DHT22;63674;48.048;8.306;2023-04-24T00:25:33;8.70;99.90
75091;DHT22;63674;48.048;8.306;2023-04-24T00:28:01;8.70;99.90
75091;DHT22;63674;48.048;8.306;2023-04-24T00:30:30;8.70;99.90
75091;DHT22;63674;48.048;8.306;2023-04-24T00:32:59;8.70;99.90
75091;DHT22;63674;48.048;8.306;2023-04-24T00:35:27;8.80;99.90
75091;DHT22;63674;48.048;8.306;2023-04-24T00:37:56;8.80;99.90
75091;DHT22;63674;48.048;8.306;2023-04-24T00:40:27;8.70;99.90
75091;DHT22;63674;48.048;8.306;2023-04-24T00:42:55;8.80;99.90
75091;DHT22;63674;48.048;8.306;2023-04-24T00:45:24;8.80;99.90
75091;DHT22;63674;48.048;8.306;2023-04-24T00:47:53;8.80;99.90
75091;DHT22;63674;48.048;8.306;2023-04-24T00:50:23;8.80;99.90
75091;DHT22;63674;48.048;8.306;2023-04-24T00:52:52;8.80;99.90
75091;DHT22;63674;48.048;8.306;2023-04-24T00:55:20;8.80;99.90
75091;DHT22;63674;48.048;8.306;2023-04-24T00:57:50;8.80;99.90
75091;DHT22;63674;48.048;8.306;2023-04-24T01:00:19;8.80;99.90
75091;DHT22;63674;48.048;8.306;2023-04-24T01:02:49;8.70;99.90
75091;DHT22;63674;48.048;8.306;2023-04-24T01:05:19;8.70;99.90
75091;DHT22;63674;48.048;8.306;2023-04-24T01:07:47;8.60;99.90
75091;DHT22;63674;48.048;8.306;2023-04-24T01:10:16;8.60;99.90
75091;DHT22;63674;48.048;8.306;2023-04-24T01:12:47;8.60;99.90
75091;DHT22;63674;48.048;8.306;2023-04-24T01:15:17;8.60;99.90
75091;DHT22;63674;48.048;8.306;2023-04-24T01:17:45;8.60;99.90
75091;DHT22;63674;48.048;8.306;2023-04-24T01:20:14;8.60;99.90
75091;DHT22;63674;48.048;8.306;2023-04-24T01:22:45;8.60;99.90
75091;DHT22;63674;48.048;8.306;2023-04-24T01:25:13;8.50;99.90
75091;DHT22;63674;48.048;8.306;2023-04-24T01:27:42;8.50;99.90
75091;DHT22;63674;48.048;8.306;2023-04-24T01:30:11;8.50;99.90
75091;DHT22;63674;48.048;8.306;2023-04-24T01:32:41;8.30;99.90
75091;DHT22;63674;48.048;8.306;2023-04-24T01:35:12;8.30;99.90
75091;DHT22;63674;48.048;8.306;2023-04-24T01:37:40;8.30;99.90
75091;DHT22;63674;48.048;8.306;2023-04-24T01:40:11;8.30;99.90
75091;DHT22;63674;48.048;8.306;2023-04-24T01:42:41;8.30;99.90
75091;DHT22;63674;48.048;8.306;2023-04-24T01:45:11;8.20;99.90
75091;DHT22;63674;48.048;8.306;2023-04-24T01:47:40;8.20;99.90
75091;DHT22;63674;48.048;8.306;2023-04-24T01:50:09;8.10;99.90
75091;DHT22;63674;48.048;8.306;2023-04-24T01:52:38;8.00;99.90
75091;DHT22;63674;48.048;8.306;2023-04-24T01:55:07;8.00;99.90
75091;DHT22;63674;48.048;8.306;2023-04-24T01:57:38;8.00;99.90
75091;DHT22;63674;48.048;8.306;2023-04-24T02:00:08;8.00;99.90
75091;DHT22;63674;48.048;8.306;2023-04-24T02:02:39;8.00;99.90
75091;DHT22;63674;48.048;8.306;2023-04-24T02:05:11;8.00;99.90
75091;DHT22;63674;48.048;8.306;2023-04-24T02:07:39;8.00;99.90
75091;DHT22;63674;48.048;8.306;2023-04-24T02:10:10;8.10;99.90
75091;DHT22;63674;48.048;8.306;2023-04-24T02:12:39;8.20;99.90
75091;DHT22;63674;48.048;8.306;2023-04-24T02:15:08;8.20;99.90
75091;DHT22;63674;48.048;8.306;2023-04-24T02:17:37;8.00;99.90
75091;DHT22;63674;48.048;8.306;2023-04-24T02:20:07;8.10;99.90
75091;DHT22;63674;48.048;8.306;2023-04-24T02:22:36;8.10;99.90
75091;DHT22;63674;48.048;8.306;2023-04-24T02:25:05;8.10;99.90
75091;DHT22;63674;48.048;8.306;2023-04-24T02:27:36;8.10;99.90
75091;DHT22;63674;48.048;8.306;2023-04-24T02:30:06;8.20;99.90
75091;DHT22;63674;48.048;8.306;2023-04-24T02:32:36;8.20;99.90
75091;DHT22;63674;48.048;8.306;2023-04-24T02:35:06;8.20;99.90
75091;DHT22;63674;48.048;8.306;2023-04-24T02:37:36;8.10;99.90
75091;DHT22;63674;48.048;8.306;2023-04-24T02:40:05;8.10;99.90
75091;DHT22;63674;48.048;8.306;2023-04-24T02:42:36;8.10;99.90
75091;DHT22;63674;48.048;8.306;2023-04-24T02:45:06;8.20;99.90
75091;DHT22;63674;48.048;8.306;2023-04-24T02:47:35;8.20;99.90
75091;DHT22;63674;48.048;8.306;2023-04-24T02:50:05;8.20;99.90
75091;DHT22;63674;48.048;8.306;2023-04-24T02:52:34;8.20;99.90
75091;DHT22;63674;48.048;8.306;2023-04-24T02:55:03;8.20;99.90
75091;DHT22;63674;48.048;8.306;2023-04-24T02:57:32;8.10;99.90
75091;DHT22;63674;48.048;8.306;2023-04-24T03:00:03;8.10;99.90
75091;DHT22;63674;48.048;8.306;2023-04-24T03:02:34;8.00;99.90
75091;DHT22;63674;48.048;8.306;2023-04-24T03:05:03;8.00;99.90
75091;DHT22;63674;48.048;8.306;2023-04-24T03:07:32;8.00;99.90
75091;DHT22;63674;48.048;8.306;2023-04-24T03:10:00;8.10;99.90
75091;DHT22;63674;48.048;8.306;2023-04-24T03:12:29;8.10;99.90
75091;DHT22;63674;48.048;8.306;2023-04-24T03:14:57;8.10;99.90
75091;DHT22;63674;48.048;8.306;2023-04-24T03:17:27;7.90;99.90
75091;DHT22;63674;48.048;8.306;2023-04-24T03:19:56;7.90;99.90
75091;DHT22;63674;48.048;8.306;2023-04-24T03:22:25;7.90;99.90
75091;DHT22;63674;48.048;8.306;2023-04-24T03:24:53;7.90;99.90
75091;DHT22;63674;48.048;8.306;2023-04-24T03:27:23;7.90;99.90
75091;DHT22;63674;48.048;8.306;2023-04-24T03:29:52;7.90;99.90
75091;DHT22;63674;48.048;8.306;2023-04-24T03:32:22;7.90;99.90
75091;DHT22;63674;48.048;8.306;2023-04-24T03:34:52;7.90;99.90
75091;DHT22;63674;48.048;8.306;2023-04-24T03:37:21;7.90;99.90
75091;DHT22;63674;48.048;8.306;2023-04-24T03:39:49;7.90;99.90
75091;DHT22;63674;48.048;8.306;2023-04-24T03:42:17;7.90;99.90
75091;DHT22;63674;48.048;8.306;2023-04-24T03:44:46;7.90;99.90
75091;DHT22;63674;48.048;8.306;2023-04-24T03:47:15;7.90;99.90
75091;DHT22;63674;48.048;8.306;2023-04-24T03:49:43;7.90;99.90
75091;DHT22;63674;48.048;8.306;2023-04-24T03:52:13;7.90;99.90
75091;DHT22;63674;48.048;8.306;2023-04-24T03:54:42;7.90;99.90
75091;DHT22;63674;48.048;8.306;2023-04-24T03:57:10;7.90;99.90
75091;DHT22;63674;48.048;8.306;2023-04-24T03:59:39;7.80;99.90
75091;DHT22;63674;48.048;8.306;2023-04-24T04:02:08;7.80;99.90
75091;DHT22;63674;48.048;8.306;2023-04-24T04:04:37;7.80;99.90
75091;DHT22;63674;48.048;8.306;2023-04-24T04:07:05;7.70;99.90
75091;DHT22;63674;48.048;8.306;2023-04-24T04:09:36;7.70;99.90
75091;DHT22;63674;48.048;8.306;2023-04-24T04:12:04;7.60;99.90
75091;DHT22;63674;48.048;8.306;2023-04-24T04:14:33;7.60;99.90
75091;DHT22;63674;48.048;8.306;2023-04-24T04:17:01;7.60;99.90
75091;DHT22;63674;48.048;8.306;2023-04-24T04:19:30;7.60;99.90
75091;DHT22;63674;48.048;8.306;2023-04-24T04:21:58;7.60;99.90
75091;DHT22;63674;48.048;8.306;2023-04-24T04:24:27;7.60;99.90
75091;DHT22;63674;48.048;8.306;2023-04-24T04:26:57;7.60;99.90
75091;DHT22;63674;48.048;8.306;2023-04-24T04:29:26;7.60;99.90
75091;DHT22;63674;48.048;8.306;2023-04-24T04:31:54;7.60;99.90
75091;DHT22;63674;48.048;8.306;2023-04-24T04:34:23;7.50;99.90
75091;DHT22;63674;48.048;8.306;2023-04-24T04:36:51;7.50;99.90
75091;DHT22;63674;48.048;8.306;2023-04-24T04:39:20;7.50;99.90
75091;DHT22;63674;48.048;8.306;2023-04-24T04:41:49;7.50;99.90
75091;DHT22;63674;48.048;8.306;2023-04-24T04:44:19;7.40;99.90
75091;DHT22;63674;48.048;8.306;2023-04-24T04:46:47;7.30;99.90
75091;DHT22;63674;48.048;8.306;2023-04-24T04:49:16;7.20;99.90
75091;DHT22;63674;48.048;8.306;2023-04-24T04:51:45;7.10;99.90
75091;DHT22;63674;48.048;8.306;2023-04-24T04:54:14;7.10;99.90
75091;DHT22;63674;48.048;8.306;2023-04-24T04:56:42;7.10;99.90
75091;DHT22;63674;48.048;8.306;2023-04-24T04:59:11;7.10;99.90
75091;DHT22;63674;48.048;8.306;2023-04-24T05:01:41;7.10;99.90
75091;DHT22;63674;48.048;8.306;2023-04-24T05:04:09;7.10;99.90
75091;DHT22;63674;48.048;8.306;2023-04-24T05:06:38;7.10;99.90
75091;DHT22;63674;48.048;8.306;2023-04-24T05:09:07;7.10;99.90
75091;DHT22;63674;48.048;8.306;2023-04-24T05:11:36;7.10;99.90
75091;DHT22;63674;48.048;8.306;2023-04-24T05:14:04;7.10;99.90
75091;DHT22;63674;48.048;8.306;2023-04-24T05:16:33;7.10;99.90
75091;DHT22;63674;48.048;8.306;2023-04-24T05:19:03;7.20;99.90
75091;DHT22;63674;48.048;8.306;2023-04-24T05:21:31;7.30;99.90
75091;DHT22;63674;48.048;8.306;2023-04-24T05:24:00;7.30;99.90
75091;DHT22;63674;48.048;8.306;2023-04-24T05:26:28;7.40;99.90
75091;DHT22;63674;48.048;8.306;2023-04-24T05:28:57;7.40;99.90
75091;DHT22;63674;48.048;8.306;2023-04-24T05:31:26;7.40;99.90
75091;DHT22;63674;48.048;8.306;2023-04-24T05:33:54;7.50;99.90
75091;DHT22;63674;48.048;8.306;2023-04-24T05:36:25;7.50;99.90
75091;DHT22;63674;48.048;8.306;2023-04-24T05:38:54;7.50;99.90
75091;DHT22;63674;48.048;8.306;2023-04-24T05:41:22;7.40;99.90
75091;DHT22;63674;48.048;8.306;2023-04-24T05:43:51;7.50;99.90
75091;DHT22;63674;48.048;8.306;2023-04-24T05:46:20;7.50;99.90
75091;DHT22;63674;48.048;8.306;2023-04-24T05:48:49;7.60;99.90
75091;DHT22;63674;48.048;8.306;2023-04-24T05:51:17;7.50;99.90
75091;DHT22;63674;48.048;8.306;2023-04-24T05:53:47;7.70;99.90
75091;DHT22;63674;48.048;8.306;2023-04-24T05:56:16;7.70;99.90
75091;DHT22;63674;48.048;8.306;2023-04-24T05:58:45;7.70;99.90
75091;DHT22;63674;48.048;8.306;2023-04-24T06:01:14;7.70;99.90
75091;DHT22;63674;48.048;8.306;2023-04-24T06:03:43;7.50;99.90
75091;DHT22;63674;48.048;8.306;2023-04-24T06:06:12;7.50;99.90
75091;DHT22;63674;48.048;8.306;2023-04-24T06:08:41;7.50;99.90
75091;DHT22;63674;48.048;8.306;2023-04-24T06:11:12;7.40;99.90
75091;DHT22;63674;48.048;8.306;2023-04-24T06:13:41;7.40;99.90
75091;DHT22;63674;48.048;8.306;2023-04-24T06:16:09;7.40;99.90
75091;DHT22;63674;48.048;8.306;2023-04-24T06:18:38;7.50;99.90
75091;DHT22;63674;48.048;8.306;2023-04-24T06:21:07;7.40;99.90
75091;DHT22;63674;48.048;8.306;2023-04-24T06:23:35;7.40;99.90
75091;DHT22;63674;48.048;8.306;2023-04-24T06:26:04;7.40;99.90
75091;DHT22;63674;48.048;8.306;2023-04-24T06:28:34;7.50;99.90
75091;DHT22;63674;48.048;8.306;2023-04-24T06:31:03;7.50;99.90
75091;DHT22;63674;48.048;8.306;2023-04-24T06:33:31;7.50;99.90
75091;DHT22;63674;48.048;8.306;2023-04-24T06:36:01;7.60;99.90
75091;DHT22;63674;48.048;8.306;2023-04-24T06:38:30;7.60;99.90
75091;DHT22;63674;48.048;8.306;2023-04-24T06:40:59;7.50;99.90
75091;DHT22;63674;48.048;8.306;2023-04-24T06:43:28;7.60;99.90
75091;DHT22;63674;48.048;8.306;2023-04-24T06:45:58;7.50;99.90
75091;DHT22;63674;48.048;8.306;2023-04-24T06:48:27;7.40;99.90
75091;DHT22;63674;48.048;8.306;2023-04-24T06:50:55;7.40;99.90
75091;DHT22;63674;48.048;8.306;2023-04-24T06:53:24;7.50;99.90
75091;DHT22;63674;48.048;8.306;2023-04-24T06:55:54;7.60;99.90
75091;DHT22;63674;48.048;8.306;2023-04-24T06:58:23;7.60;99.90
75091;DHT22;63674;48.048;8.306;2023-04-24T07:00:52;7.60;99.90
75091;DHT22;63674;48.048;8.306;2023-04-24T07:03:23;7.40;99.90
75091;DHT22;63674;48.048;8.306;2023-04-24T07:05:53;7.30;99.90
75091;DHT22;63674;48.048;8.306;2023-04-24T07:08:44;7.20;99.90
75091;DHT22;63674;48.048;8.306;2023-04-24T07:11:13;7.20;99.90
75091;DHT22;63674;48.048;8.306;2023-04-24T07:13:42;7.20;99.90
75091;DHT22;63674;48.048;8.306;2023-04-24T07:16:11;7.10;99.90
75091;DHT22;63674;48.048;8.306;2023-04-24T07:18:41;7.20;99.90
75091;DHT22;63674;48.048;8.306;2023-04-24T07:21:09;7.20;99.90
75091;DHT22;63674;48.048;8.306;2023-04-24T07:23:38;7.20;99.90
75091;DHT22;63674;48.048;8.306;2023-04-24T07:26:08;7.10;99.90
75091;DHT22;63674;48.048;8.306;2023-04-24T07:28:36;7.10;99.90
75091;DHT22;63674;48.048;8.306;2023-04-24T07:31:05;7.00;99.90
75091;DHT22;63674;48.048;8.306;2023-04-24T07:33:33;7.00;99.90
75091;DHT22;63674;48.048;8.306;2023-04-24T07:36:06;7.00;99.90
75091;DHT22;63674;48.048;8.306;2023-04-24T07:38:34;7.10;99.90
75091;DHT22;63674;48.048;8.306;2023-04-24T07:41:03;7.20;99.90
75091;DHT22;63674;48.048;8.306;2023-04-24T07:43:31;7.30;99.90
75091;DHT22;63674;48.048;8.306;2023-04-24T07:46:00;7.30;99.90
75091;DHT22;63674;48.048;8.306;2023-04-24T07:48:29;7.20;99.90
75091;DHT22;63674;48.048;8.306;2023-04-24T07:50:58;7.20;99.90
75091;DHT22;63674;48.048;8.306;2023-04-24T07:53:28;7.30;99.90
75091;DHT22;63674;48.048;8.306;2023-04-24T07:55:58;7.90;99.90
75091;DHT22;63674;48.048;8.306;2023-04-24T07:58:26;8.40;99.90
75091;DHT22;63674;48.048;8.306;2023-04-24T08:00:55;8.60;99.90
75091;DHT22;63674;48.048;8.306;2023-04-24T08:03:23;8.80;99.90
75091;DHT22;63674;48.048;8.306;2023-04-24T08:05:53;8.80;99.90
75091;DHT22;63674;48.048;8.306;2023-04-24T08:08:22;8.80;99.90
75091;DHT22;63674;48.048;8.306;2023-04-24T08:10:52;9.00;99.90
75091;DHT22;63674;48.048;8.306;2023-04-24T08:13:21;8.90;99.90
75091;DHT22;63674;48.048;8.306;2023-04-24T08:15:50;8.70;99.90
75091;DHT22;63674;48.048;8.306;2023-04-24T08:18:19;8.40;99.90
75091;DHT22;63674;48.048;8.306;2023-04-24T08:20:48;8.20;99.90
75091;DHT22;63674;48.048;8.306;2023-04-24T08:23:17;8.40;99.90
75091;DHT22;63674;48.048;8.306;2023-04-24T08:25:46;9.20;99.90
75091;DHT22;63674;48.048;8.306;2023-04-24T08:28:16;9.70;99.90
75091;DHT22;63674;48.048;8.306;2023-04-24T08:30:47;9.60;99.40
75091;DHT22;63674;48.048;8.306;2023-04-24T08:33:23;9.20;99.90
75091;DHT22;63674;48.048;8.306;2023-04-24T08:35:53;9.20;99.90
75091;DHT22;63674;48.048;8.306;2023-04-24T08:38:21;9.90;99.90
75091;DHT22;63674;48.048;8.306;2023-04-24T08:40:50;9.90;99.90
75091;DHT22;63674;48.048;8.306;2023-04-24T08:43:21;10.30;99.90
75091;DHT22;63674;48.048;8.306;2023-04-24T08:45:51;10.40;99.50
75091;DHT22;63674;48.048;8.306;2023-04-24T08:48:23;9.90;97.50
75091;DHT22;63674;48.048;8.306;2023-04-24T08:50:58;9.30;96.60
75091;DHT22;63674;48.048;8.306;2023-04-24T08:53:28;8.80;99.90
75091;DHT22;63674;48.048;8.306;2023-04-24T08:55:57;8.60;99.90
75091;DHT22;63674;48.048;8.306;2023-04-24T08:58:27;8.50;99.50
75091;DHT22;63674;48.048;8.306;2023-04-24T09:00:57;8.30;99.90
75091;DHT22;63674;48.048;8.306;2023-04-24T09:03:27;8.30;99.90
75091;DHT22;63674;48.048;8.306;2023-04-24T09:05:57;8.10;99.90
75091;DHT22;63674;48.048;8.306;2023-04-24T09:08:26;8.10;99.90
75091;DHT22;63674;48.048;8.306;2023-04-24T09:10:56;8.10;99.90
75091;DHT22;63674;48.048;8.306;2023-04-24T09:13:30;8.20;99.90
75091;DHT22;63674;48.048;8.306;2023-04-24T09:16:00;8.20;99.90
75091;DHT22;63674;48.048;8.306;2023-04-24T09:18:29;7.90;99.90
75091;DHT22;63674;48.048;8.306;2023-04-24T09:20:58;7.90;99.90
75091;DHT22;63674;48.048;8.306;2023-04-24T09:23:28;7.90;99.90
75091;DHT22;63674;48.048;8.306;2023-04-24T09:25:58;7.90;99.90
75091;DHT22;63674;48.048;8.306;2023-04-24T09:28:32;8.00;99.90
75091;DHT22;63674;48.048;8.306;2023-04-24T09:31:05;8.20;99.90
75091;DHT22;63674;48.048;8.306;2023-04-24T09:33:34;8.20;99.90
75091;DHT22;63674;48.048;8.306;2023-04-24T09:36:04;8.10;99.90
75091;DHT22;63674;48.048;8.306;2023-04-24T09:38:34;8.20;99.90
75091;DHT22;63674;48.048;8.306;2023-04-24T09:41:06;8.40;99.90
75091;DHT22;63674;48.048;8.306;2023-04-24T09:43:36;9.10;99.50
75091;DHT22;63674;48.048;8.306;2023-04-24T09:46:06;8.20;99.90
75091;DHT22;63674;48.048;8.306;2023-04-24T09:48:37;8.30;99.90
75091;DHT22;63674;48.048;8.306;2023-04-24T09:51:06;8.30;97.60
75091;DHT22;63674;48.048;8.306;2023-04-24T09:53:37;8.20;99.90
75091;DHT22;63674;48.048;8.306;2023-04-24T09:56:08;8.10;99.90
75091;DHT22;63674;48.048;8.306;2023-04-24T09:58:40;8.00;99.90
75091;DHT22;63674;48.048;8.306;2023-04-24T10:01:09;7.90;99.90
75091;DHT22;63674;48.048;8.306;2023-04-24T10:03:37;7.90;99.90
75091;DHT22;63674;48.048;8.306;2023-04-24T10:06:06;8.30;99.90
75091;DHT22;63674;48.048;8.306;2023-04-24T10:08:37;8.50;99.90
75091;DHT22;63674;48.048;8.306;2023-04-24T10:11:06;8.50;99.30
75091;DHT22;63674;48.048;8.306;2023-04-24T10:13:37;8.40;99.90
75091;DHT22;63674;48.048;8.306;2023-04-24T10:16:09;8.20;99.90
75091;DHT22;63674;48.048;8.306;2023-04-24T10:18:39;8.00;99.70
75091;DHT22;63674;48.048;8.306;2023-04-24T10:21:08;8.10;99.90
75091;DHT22;63674;48.048;8.306;2023-04-24T10:23:36;8.10;99.90
75091;DHT22;63674;48.048;8.306;2023-04-24T10:26:06;8.10;92.60
75091;DHT22;63674;48.048;8.306;2023-04-24T10:28:36;8.30;98.50
75091;DHT22;63674;48.048;8.306;2023-04-24T10:31:06;8.20;95.70
75091;DHT22;63674;48.048;8.306;2023-04-24T10:33:35;8.00;97.40
75091;DHT22;63674;48.048;8.306;2023-04-24T10:36:04;7.90;99.90
75091;DHT22;63674;48.048;8.306;2023-04-24T10:38:34;8.00;99.90
75091;DHT22;63674;48.048;8.306;2023-04-24T10:41:10;8.30;98.40
75091;DHT22;63674;48.048;8.306;2023-04-24T10:43:43;8.80;99.90
75091;DHT22;63674;48.048;8.306;2023-04-24T10:46:19;9.50;96.60
75091;DHT22;63674;48.048;8.306;2023-04-24T10:48:53;9.70;92.90
75091;DHT22;63674;48.048;8.306;2023-04-24T10:51:22;9.80;92.10
75091;DHT22;63674;48.048;8.306;2023-04-24T10:53:51;10.00;91.20
75091;DHT22;63674;48.048;8.306;2023-04-24T10:56:21;9.80;88.00
75091;DHT22;63674;48.048;8.306;2023-04-24T10:58:51;9.20;87.70
75091;DHT22;63674;48.048;8.306;2023-04-24T11:01:27;8.80;91.20
75091;DHT22;63674;48.048;8.306;2023-04-24T11:03:58;8.80;92.80
75091;DHT22;63674;48.048;8.306;2023-04-24T11:06:30;8.70;89.50
75091;DHT22;63674;48.048;8.306;2023-04-24T11:09:03;8.50;86.70
75091;DHT22;63674;48.048;8.306;2023-04-24T11:11:34;8.50;93.10
75091;DHT22;63674;48.048;8.306;2023-04-24T11:14:05;8.60;90.80
75091;DHT22;63674;48.048;8.306;2023-04-24T11:16:43;8.50;89.30
75091;DHT22;63674;48.048;8.306;2023-04-24T11:19:22;8.40;86.50
75091;DHT22;63674;48.048;8.306;2023-04-24T11:21:59;8.30;91.30
75091;DHT22;63674;48.048;8.306;2023-04-24T11:24:31;8.20;89.50
75091;DHT22;63674;48.048;8.306;2023-04-24T11:27:07;8.50;92.80
75091;DHT22;63674;48.048;8.306;2023-04-24T11:29:42;8.70;90.80
75091;DHT22;63674;48.048;8.306;2023-04-24T11:32:17;8.60;91.60
75091;DHT22;63674;48.048;8.306;2023-04-24T11:34:48;8.10;91.60
75091;DHT22;63674;48.048;8.306;2023-04-24T11:37:17;8.10;89.10
75091;DHT22;63674;48.048;8.306;2023-04-24T11:39:46;8.20;89.20
75091;DHT22;63674;48.048;8.306;2023-04-24T11:42:15;8.20;93.00
75091;DHT22;63674;48.048;8.306;2023-04-24T11:44:43;8.20;94.70
75091;DHT22;63674;48.048;8.306;2023-04-24T11:47:16;8.30;91.50
75091;DHT22;63674;48.048;8.306;2023-04-24T11:49:44;8.30;90.60
75091;DHT22;63674;48.048;8.306;2023-04-24T11:52:15;7.90;91.50
75091;DHT22;63674;48.048;8.306;2023-04-24T11:54:48;7.90;90.60
75091;DHT22;63674;48.048;8.306;2023-04-24T11:57:19;8.00;89.30
75091;DHT22;63674;48.048;8.306;2023-04-24T11:59:49;8.00;91.80
75091;DHT22;63674;48.048;8.306;2023-04-24T12:02:26;8.00;93.70
75091;DHT22;63674;48.048;8.306;2023-04-24T12:04:55;8.40;91.80
75091;DHT22;63674;48.048;8.306;2023-04-24T12:07:25;8.80;99.90
75091;DHT22;63674;48.048;8.306;2023-04-24T12:09:58;9.00;92.30
75091;DHT22;63674;48.048;8.306;2023-04-24T12:12:28;9.30;98.50
75091;DHT22;63674;48.048;8.306;2023-04-24T12:14:58;9.60;97.30
75091;DHT22;63674;48.048;8.306;2023-04-24T12:17:30;10.10;94.80
75091;DHT22;63674;48.048;8.306;2023-04-24T12:20:01;10.00;88.90
75091;DHT22;63674;48.048;8.306;2023-04-24T12:22:43;10.20;89.20
75091;DHT22;63674;48.048;8.306;2023-04-24T12:25:14;10.00;77.10
75091;DHT22;63674;48.048;8.306;2023-04-24T12:27:43;9.90;84.90
75091;DHT22;63674;48.048;8.306;2023-04-24T12:30:14;9.90;90.90
75091;DHT22;63674;48.048;8.306;2023-04-24T12:32:46;9.80;82.90
75091;DHT22;63674;48.048;8.306;2023-04-24T12:35:20;9.70;86.60
75091;DHT22;63674;48.048;8.306;2023-04-24T12:37:50;10.00;92.20
75091;DHT22;63674;48.048;8.306;2023-04-24T12:40:20;9.90;90.40
75091;DHT22;63674;48.048;8.306;2023-04-24T12:42:50;10.00;94.70
75091;DHT22;63674;48.048;8.306;2023-04-24T12:45:21;9.90;92.90
75091;DHT22;63674;48.048;8.306;2023-04-24T12:47:52;9.50;87.00
75091;DHT22;63674;48.048;8.306;2023-04-24T12:50:20;9.20;91.00
75091;DHT22;63674;48.048;8.306;2023-04-24T12:52:49;9.10;92.40
75091;DHT22;63674;48.048;8.306;2023-04-24T12:55:17;9.10;93.20
75091;DHT22;63674;48.048;8.306;2023-04-24T12:57:46;9.20;95.60
75091;DHT22;63674;48.048;8.306;2023-04-24T13:00:15;9.20;93.40
75091;DHT22;63674;48.048;8.306;2023-04-24T13:02:46;9.10;95.00
75091;DHT22;63674;48.048;8.306;2023-04-24T13:05:16;9.00;94.60
75091;DHT22;63674;48.048;8.306;2023-04-24T13:07:45;8.90;93.80
75091;DHT22;63674;48.048;8.306;2023-04-24T13:10:13;8.70;93.70
75091;DHT22;63674;48.048;8.306;2023-04-24T13:12:42;8.50;93.60
75091;DHT22;63674;48.048;8.306;2023-04-24T13:15:12;8.40;96.10
75091;DHT22;63674;48.048;8.306;2023-04-24T13:17:41;8.40;96.40
75091;DHT22;63674;48.048;8.306;2023-04-24T13:20:10;8.30;99.90
75091;DHT22;63674;48.048;8.306;2023-04-24T13:22:40;8.10;99.90
75091;DHT22;63674;48.048;8.306;2023-04-24T13:25:09;7.90;99.90
75091;DHT22;63674;48.048;8.306;2023-04-24T13:27:38;7.90;99.90
75091;DHT22;63674;48.048;8.306;2023-04-24T13:30:08;7.80;99.90
75091;DHT22;63674;48.048;8.306;2023-04-24T13:32:37;8.00;99.90
75091;DHT22;63674;48.048;8.306;2023-04-24T13:35:06;8.20;99.90
75091;DHT22;63674;48.048;8.306;2023-04-24T13:37:35;8.30;99.90
75091;DHT22;63674;48.048;8.306;2023-04-24T13:40:06;8.20;99.90
75091;DHT22;63674;48.048;8.306;2023-04-24T13:42:35;8.40;99.90
75091;DHT22;63674;48.048;8.306;2023-04-24T13:45:05;8.40;99.90
75091;DHT22;63674;48.048;8.306;2023-04-24T13:47:50;8.50;99.90
75091;DHT22;63674;48.048;8.306;2023-04-24T13:50:19;8.50;99.90
75091;DHT22;63674;48.048;8.306;2023-04-24T13:52:48;8.50;99.90
75091;DHT22;63674;48.048;8.306;2023-04-24T13:55:18;8.50;99.90
75091;DHT22;63674;48.048;8.306;2023-04-24T13:57:46;8.30;99.90
75091;DHT22;63674;48.048;8.306;2023-04-24T14:00:16;8.20;99.90
75091;DHT22;63674;48.048;8.306;2023-04-24T14:02:45;8.30;99.90
75091;DHT22;63674;48.048;8.306;2023-04-24T14:05:14;8.40;99.90
75091;DHT22;63674;48.048;8.306;2023-04-24T14:07:43;8.40;99.90
75091;DHT22;63674;48.048;8.306;2023-04-24T14:10:11;8.40;99.90
75091;DHT22;63674;48.048;8.306;2023-04-24T14:12:42;8.40;99.90
75091;DHT22;63674;48.048;8.306;2023-04-24T14:15:11;8.30;99.90
75091;DHT22;63674;48.048;8.306;2023-04-24T14:17:40;8.20;99.90
75091;DHT22;63674;48.048;8.306;2023-04-24T14:20:09;8.20;99.90
75091;DHT22;63674;48.048;8.306;2023-04-24T14:22:40;8.10;99.90
75091;DHT22;63674;48.048;8.306;2023-04-24T14:25:09;8.30;99.90
75091;DHT22;63674;48.048;8.306;2023-04-24T14:27:38;8.40;99.90
75091;DHT22;63674;48.048;8.306;2023-04-24T14:30:09;8.40;99.90
75091;DHT22;63674;48.048;8.306;2023-04-24T14:32:38;8.50;99.90
75091;DHT22;63674;48.048;8.306;2023-04-24T14:35:08;8.50;99.90
75091;DHT22;63674;48.048;8.306;2023-04-24T14:37:36;8.60;99.90
75091;DHT22;63674;48.048;8.306;2023-04-24T14:40:09;8.70;99.90
75091;DHT22;63674;48.048;8.306;2023-04-24T14:42:58;8.70;99.90
75091;DHT22;63674;48.048;8.306;2023-04-24T14:45:28;8.60;99.90
75091;DHT22;63674;48.048;8.306;2023-04-24T14:47:57;8.60;99.90
75091;DHT22;63674;48.048;8.306;2023-04-24T14:50:26;8.50;99.90
75091;DHT22;63674;48.048;8.306;2023-04-24T14:52:55;8.60;99.90
75091;DHT22;63674;48.048;8.306;2023-04-24T14:55:25;8.60;99.90
75091;DHT22;63674;48.048;8.306;2023-04-24T14:57:53;8.70;99.90
75091;DHT22;63674;48.048;8.306;2023-04-24T15:00:23;8.70;99.90
75091;DHT22;63674;48.048;8.306;2023-04-24T15:02:53;8.60;99.90
75091;DHT22;63674;48.048;8.306;2023-04-24T15:05:22;8.50;99.90
75091;DHT22;63674;48.048;8.306;2023-04-24T15:07:52;8.40;99.90
75091;DHT22;63674;48.048;8.306;2023-04-24T15:10:21;8.40;99.90
75091;DHT22;63674;48.048;8.306;2023-04-24T15:12:50;8.40;99.90
75091;DHT22;63674;48.048;8.306;2023-04-24T15:15:19;8.50;99.90
75091;DHT22;63674;48.048;8.306;2023-04-24T15:17:48;8.60;99.90
75091;DHT22;63674;48.048;8.306;2023-04-24T15:20:18;8.70;99.90
75091;DHT22;63674;48.048;8.306;2023-04-24T15:22:47;8.70;99.90
75091;DHT22;63674;48.048;8.306;2023-04-24T15:25:15;8.60;99.90
75091;DHT22;63674;48.048;8.306;2023-04-24T15:27:45;8.60;99.90
75091;DHT22;63674;48.048;8.306;2023-04-24T15:30:13;8.60;99.90
75091;DHT22;63674;48.048;8.306;2023-04-24T15:32:42;8.50;97.70
75091;DHT22;63674;48.048;8.306;2023-04-24T15:35:11;8.40;99.90
75091;DHT22;63674;48.048;8.306;2023-04-24T15:37:41;8.40;99.90
75091;DHT22;63674;48.048;8.306;2023-04-24T15:40:10;8.50;99.90
75091;DHT22;63674;48.048;8.306;2023-04-24T15:42:40;8.50;96.80
75091;DHT22;63674;48.048;8.306;2023-04-24T15:45:10;8.50;93.30
75091;DHT22;63674;48.048;8.306;2023-04-24T15:47:39;8.50;96.80
75091;DHT22;63674;48.048;8.306;2023-04-24T15:50:08;8.50;94.80
75091;DHT22;63674;48.048;8.306;2023-04-24T15:52:42;8.60;97.50
75091;DHT22;63674;48.048;8.306;2023-04-24T15:55:11;8.70;95.80
75091;DHT22;63674;48.048;8.306;2023-04-24T15:57:39;8.70;97.70
75091;DHT22;63674;48.048;8.306;2023-04-24T16:00:10;8.80;97.10